Time;durP1;ratioP1;P1;durP2;ratioP2;P2;SDS_P1;SDS_P2;PMS_P1;PMS_P2;Temp;Humidity;BMP_temperature;BMP_pressure;BME280_temperature;BME280_humidity;BME280_pressure;Samples;Min_cycle;Max_cycle;Signal;HPM_P1;HPM_P2
2021/06/02 00:02:01;;;;;;;1.00;0.43;;;;;;;11.95;100.00;97603.50;5017213;28;20480;-84
2021/06/02 00:04:28;;;;;;;0.57;0.22;;;;;;;11.93;100.00;97599.22;5014083;28;20029;-84
2021/06/02 00:07:06;;;;;;;0.00;0.00;;;;;;;11.88;100.00;97595.97;5031853;28;20032;-84
2021/06/02 00:09:33;;;;;;;0.08;0.08;;;;;;;11.81;100.00;97584.78;5017809;28;20025;-84
2021/06/02 00:12:01;;;;;;;0.00;0.00;;;;;;;11.77;100.00;97585.09;5019444;28;20033;-84
2021/06/02 00:14:27;;;;;;;0.10;0.10;;;;;;;11.76;100.00;97588.72;5021423;28;20480;-85
2021/06/02 00:16:54;;;;;;;0.00;0.00;;;;;;;11.81;100.00;97590.13;5018308;28;20033;-85
2021/06/02 00:19:21;;;;;;;0.10;0.10;;;;;;;11.73;100.00;97587.13;5021141;28;20059;-85
2021/06/02 00:21:47;;;;;;;0.10;0.10;;;;;;;11.71;100.00;97591.72;5017731;28;20029;-84
2021/06/02 00:24:13;;;;;;;0.00;0.00;;;;;;;11.82;100.00;97607.94;5017768;28;20033;-84
2021/06/02 00:26:40;;;;;;;0.20;0.20;;;;;;;11.83;100.00;97600.78;5032719;28;20545;-84
2021/06/02 00:29:08;;;;;;;0.00;0.00;;;;;;;11.87;100.00;97607.66;5021017;28;20414;-85
2021/06/02 00:31:37;;;;;;;0.20;0.10;;;;;;;11.86;100.00;97611.28;5017635;28;20108;-85
2021/06/02 00:34:04;;;;;;;0.00;0.00;;;;;;;11.82;100.00;97605.28;5020638;28;20036;-85
2021/06/02 00:36:30;;;;;;;0.10;0.10;;;;;;;11.87;100.00;97616.53;5020817;28;20036;-85
2021/06/02 00:38:57;;;;;;;0.00;0.00;;;;;;;11.90;100.00;97613.66;5037113;28;20111;-85
2021/06/02 00:41:23;;;;;;;0.10;0.10;;;;;;;11.92;100.00;97618.94;5020638;28;20029;-84
2021/06/02 00:43:48;;;;;;;0.00;0.00;;;;;;;11.90;100.00;97615.50;5017289;28;20079;-84
2021/06/02 00:46:15;;;;;;;0.30;0.30;;;;;;;11.86;100.00;97601.44;5017282;28;20030;-85
2021/06/02 00:48:42;;;;;;;0.00;0.00;;;;;;;11.83;100.00;97606.13;5017563;28;20025;-84
2021/06/02 00:51:09;;;;;;;0.00;0.00;;;;;;;11.83;100.00;97611.50;5017319;28;20036;-84
2021/06/02 00:53:35;;;;;;;0.00;0.00;;;;;;;11.82;100.00;97601.72;5020429;28;20025;-83
2021/06/02 00:56:06;;;;;;;0.20;0.20;;;;;;;11.87;100.00;97611.19;5033591;28;20437;-83
2021/06/02 00:58:43;;;;;;;0.00;0.00;;;;;;;11.82;100.00;97609.75;5017045;28;20416;-85
2021/06/02 01:01:09;;;;;;;0.00;0.00;;;;;;;11.80;100.00;97600.97;5016801;28;20037;-85
2021/06/02 01:03:36;;;;;;;0.10;0.10;;;;;;;11.85;100.00;97607.75;5017030;28;20098;-85
2021/06/02 01:06:03;;;;;;;0.20;0.15;;;;;;;11.83;100.00;97600.78;5019979;28;20040;-85
2021/06/02 01:08:31;;;;;;;0.10;0.10;;;;;;;11.80;100.00;97601.84;5004316;28;20053;-84
2021/06/02 01:10:57;;;;;;;0.00;0.00;;;;;;;11.78;100.00;97584.16;5019801;28;20032;-85
2021/06/02 01:13:23;;;;;;;0.20;0.20;;;;;;;11.65;100.00;97577.84;5019907;28;20131;-85
2021/06/02 01:15:50;;;;;;;0.10;0.10;;;;;;;11.80;100.00;97600.97;5019927;28;20135;-85
2021/06/02 01:18:17;;;;;;;0.00;0.00;;;;;;;11.83;100.00;97608.81;5019199;28;20575;-84
2021/06/02 01:20:44;;;;;;;0.10;0.10;;;;;;;11.84;100.00;97610.53;5019902;28;20033;-85
2021/06/02 01:23:12;;;;;;;0.10;0.10;;;;;;;11.77;100.00;97606.53;5019700;28;20063;-85
2021/06/02 01:25:41;;;;;;;0.00;0.00;;;;;;;11.76;100.00;97600.31;5016562;28;20018;-84
2021/06/02 01:28:07;;;;;;;0.65;0.30;;;;;;;11.82;100.00;97607.09;5019544;28;20431;-84
2021/06/02 01:30:33;;;;;;;0.10;0.10;;;;;;;11.75;100.00;97595.06;5019625;28;20017;-85
2021/06/02 01:33:19;;;;;;;0.00;0.00;;;;;;;11.81;100.00;97600.03;5019596;28;20036;-83
2021/06/02 01:35:45;;;;;;;0.08;0.08;;;;;;;11.78;100.00;97606.41;5032815;28;20056;-84
2021/06/02 01:38:41;;;;;;;0.20;0.20;;;;;;;11.75;100.00;97601.25;5032553;28;20511;-83
2021/06/02 01:41:25;;;;;;;0.00;0.00;;;;;;;11.76;100.00;97603.00;5036063;28;20036;-83
2021/06/02 01:44:10;;;;;;;0.17;0.08;;;;;;;11.80;100.00;97609.88;5035949;28;20044;-84
2021/06/02 01:46:52;;;;;;;0.10;0.10;;;;;;;11.78;100.00;97621.66;5016672;28;20065;-84
2021/06/02 01:49:49;;;;;;;0.00;0.00;;;;;;;11.74;100.00;97610.28;5000076;28;20033;-84
2021/06/02 01:52:30;;;;;;;0.00;0.00;;;;;;;11.72;100.00;97616.72;5034205;28;20462;-84
2021/06/02 01:55:23;;;;;;;0.38;0.00;;;;;;;11.72;100.00;97617.53;5045984;28;20130;-84
2021/06/02 01:58:26;;;;;;;0.15;0.10;;;;;;;11.70;100.00;97614.13;5033172;28;20033;-85
2021/06/02 02:01:14;;;;;;;0.20;0.20;;;;;;;11.70;100.00;97621.28;5023921;28;20436;-84
2021/06/02 02:03:55;;;;;;;0.10;0.10;;;;;;;11.71;100.00;97626.56;5016459;28;20049;-83
2021/06/02 02:06:35;;;;;;;0.08;0.08;;;;;;;11.60;100.00;97623.66;5016427;28;20549;-84
2021/06/02 02:09:10;;;;;;;0.00;0.00;;;;;;;11.67;100.00;97637.53;5019031;28;20048;-85
2021/06/02 02:11:39;;;;;;;0.00;0.00;;;;;;;11.71;100.00;97631.06;5041097;28;20435;-84
2021/06/02 02:14:37;;;;;;;0.10;0.10;;;;;;;11.62;100.00;97626.28;4999473;28;20091;-84
2021/06/02 02:17:29;;;;;;;0.13;0.13;;;;;;;11.64;100.00;97627.88;5041657;28;20400;-84
2021/06/02 02:20:00;;;;;;;0.08;0.08;;;;;;;11.67;100.00;97618.78;5016972;28;20045;-84
2021/06/02 02:23:03;;;;;;;0.00;0.00;;;;;;;11.66;100.00;97625.13;5034078;28;20029;-84
2021/06/02 02:25:50;;;;;;;0.00;0.00;;;;;;;11.70;100.00;97619.47;5035387;28;20530;-84
2021/06/02 02:28:34;;;;;;;0.10;0.10;;;;;;;11.66;100.00;97623.28;5031736;28;20032;-84
2021/06/02 02:31:21;;;;;;;1.13;0.35;;;;;;;11.68;100.00;97620.50;5047570;28;20035;-84
2021/06/02 02:34:01;;;;;;;0.28;0.28;;;;;;;11.71;100.00;97621.22;5035272;28;20041;-84
2021/06/02 02:36:45;;;;;;;0.75;0.30;;;;;;;11.76;100.00;97620.88;5015293;28;20412;-84
2021/06/02 02:39:17;;;;;;;0.05;0.05;;;;;;;11.75;100.00;97624.56;5015220;28;20029;-84
2021/06/02 02:42:07;;;;;;;0.65;0.40;;;;;;;11.72;100.00;97630.09;5015353;28;20051;-84
2021/06/02 02:45:18;;;;;;;0.80;0.50;;;;;;;11.67;100.00;97619.66;5031239;28;20053;-84
2021/06/02 02:48:22;;;;;;;0.00;0.00;;;;;;;11.68;100.00;97628.53;4967814;28;20052;-84
2021/06/02 02:51:25;;;;;;;0.10;0.10;;;;;;;11.64;100.00;97638.59;5031501;28;20124;-84
2021/06/02 02:53:58;;;;;;;0.00;0.00;;;;;;;11.58;100.00;97646.16;5015286;28;20033;-84
2021/06/02 02:56:35;;;;;;;0.10;0.10;;;;;;;11.60;100.00;97644.25;5000271;28;20033;-84
2021/06/02 02:59:04;;;;;;;0.00;0.00;;;;;;;11.58;100.00;97655.06;5014931;28;20033;-84
2021/06/02 03:02:02;;;;;;;0.15;0.15;;;;;;;11.57;100.00;97649.78;5014656;28;20034;-85
2021/06/02 03:04:28;;;;;;;0.38;0.38;;;;;;;11.48;100.00;97637.00;5017973;28;20033;-84
2021/06/02 03:06:56;;;;;;;0.05;0.05;;;;;;;11.52;100.00;97650.09;5031160;28;20128;-84
2021/06/02 03:09:50;;;;;;;0.10;0.10;;;;;;;11.48;100.00;97634.31;5033005;28;20052;-85
2021/06/02 03:12:25;;;;;;;0.00;0.00;;;;;;;11.56;100.00;97648.09;5034392;28;20105;-85
2021/06/02 03:15:02;;;;;;;0.00;0.00;;;;;;;11.59;100.00;97648.75;5017974;28;20399;-85
2021/06/02 03:17:47;;;;;;;0.00;0.00;;;;;;;11.54;100.00;97650.84;5016653;28;20036;-85
2021/06/02 03:20:27;;;;;;;0.10;0.10;;;;;;;11.54;100.00;97648.19;5034256;28;20029;-85
2021/06/02 03:23:40;;;;;;;0.63;0.40;;;;;;;11.59;100.00;97654.13;5018044;28;20389;-84
2021/06/02 03:26:11;;;;;;;0.10;0.07;;;;;;;11.57;100.00;97649.78;5017964;28;20385;-84
2021/06/02 03:28:51;;;;;;;0.00;0.00;;;;;;;11.60;100.00;97658.50;5017243;28;20271;-84
2021/06/02 03:31:41;;;;;;;0.65;0.22;;;;;;;11.66;100.00;97657.28;5030849;28;20496;-85
2021/06/02 03:34:26;;;;;;;0.25;0.20;;;;;;;11.66;100.00;97659.94;5031068;28;20033;-84
2021/06/02 03:37:13;;;;;;;0.10;0.10;;;;;;;11.72;100.00;97659.59;5002999;28;20033;-84
2021/06/02 03:40:09;;;;;;;0.00;0.00;;;;;;;11.66;100.00;97660.78;5030879;28;20056;-85
2021/06/02 03:42:53;;;;;;;0.20;0.10;;;;;;;11.67;100.00;97664.31;5033516;28;20431;-85
2021/06/02 03:45:19;;;;;;;0.80;0.40;;;;;;;11.71;100.00;97666.75;5017557;28;20118;-85
2021/06/02 03:47:56;;;;;;;0.10;0.10;;;;;;;11.71;100.00;97664.09;5033873;28;20032;-83
2021/06/02 03:50:27;;;;;;;0.10;0.10;;;;;;;11.79;100.00;97676.97;5033540;28;20021;-84
2021/06/02 03:53:40;;;;;;;0.30;0.30;;;;;;;11.82;100.00;97682.13;5017362;28;20082;-84
2021/06/02 03:56:24;;;;;;;;;;;;;;;11.84;100.00;97680.22;5029254;28;20043;-84
2021/06/02 03:59:02;;;;;;;0.05;0.05;;;;;;;11.68;100.00;97652.66;5030971;28;20339;-84
2021/06/02 04:01:46;;;;;;;0.10;0.10;;;;;;;11.84;100.00;97670.34;5017447;28;20128;-84
2021/06/02 04:04:28;;;;;;;0.32;0.10;;;;;;;11.94;100.00;97681.31;5033927;28;20119;-83
2021/06/02 04:07:03;;;;;;;0.40;0.20;;;;;;;11.96;100.00;97679.44;5013965;28;20029;-83
2021/06/02 04:09:33;;;;;;;2.13;0.85;;;;;;;11.98;100.00;97690.03;5014374;28;20030;-84
2021/06/02 04:12:18;;;;;;;0.35;0.20;;;;;;;11.98;100.00;97682.84;5014123;28;20276;-84
2021/06/02 04:14:53;;;;;;;0.55;0.35;;;;;;;12.02;100.00;97676.34;5016700;28;20033;-85
2021/06/02 04:17:21;;;;;;;0.25;0.25;;;;;;;12.12;100.00;97682.81;5017799;28;20099;-84
2021/06/02 04:19:49;;;;;;;0.10;0.10;;;;;;;12.17;100.00;97690.56;5017007;28;20025;-85
2021/06/02 04:22:18;;;;;;;0.10;0.10;;;;;;;12.23;100.00;97688.34;5014683;28;20109;-83
2021/06/02 04:24:44;;;;;;;0.17;0.17;;;;;;;12.35;100.00;97692.88;5014180;28;20029;-83
2021/06/02 04:27:13;;;;;;;0.20;0.20;;;;;;;12.30;100.00;97683.44;5014383;28;20496;-84
2021/06/02 04:29:39;;;;;;;0.10;0.10;;;;;;;12.41;100.00;97692.47;5014197;28;20030;-85
2021/06/02 04:32:07;;;;;;;0.47;0.40;;;;;;;12.50;100.00;97686.47;5014627;28;20030;-86
2021/06/02 04:34:33;;;;;;;0.50;0.22;;;;;;;12.52;100.00;97678.31;5017203;28;20035;-84
2021/06/02 04:37:28;;;;;;;0.08;0.08;;;;;;;12.64;100.00;97698.13;5018780;28;20091;-83
2021/06/02 04:39:54;;;;;;;0.22;0.10;;;;;;;12.50;100.00;97678.44;5005169;28;20095;-83
2021/06/02 04:45:24;;;;;;;0.15;0.13;;;;;;;12.63;100.00;97677.59;5051375;28;20155;-83
2021/06/02 04:47:50;;;;;;;0.20;0.10;;;;;;;12.62;100.00;97691.97;5016517;28;20064;-82
2021/06/02 04:50:37;;;;;;;0.20;0.20;;;;;;;12.72;100.00;97702.00;5016111;28;20029;-83
2021/06/02 04:53:38;;;;;;;0.10;0.10;;;;;;;12.99;100.00;97693.88;5027332;28;20151;-78
2021/06/02 04:56:28;;;;;;;0.00;0.00;;;;;;;13.09;100.00;97696.81;5043927;28;20484;-80
2021/06/02 04:58:56;;;;;;;0.10;0.10;;;;;;;13.31;100.00;97705.09;5032616;28;20034;-80
2021/06/02 05:01:31;;;;;;;0.10;0.10;;;;;;;13.45;100.00;97705.81;5034000;28;20079;-80
2021/06/02 05:04:17;;;;;;;0.10;0.10;;;;;;;13.89;97.37;97701.78;5033827;28;20030;-81
2021/06/02 05:07:03;;;;;;;0.40;0.38;;;;;;;14.99;89.88;97706.88;5035846;28;20034;-79
2021/06/02 05:10:05;;;;;;;8.02;1.58;;;;;;;17.09;79.92;97713.06;5035897;28;20293;-80
2021/06/02 05:12:58;;;;;;;0.22;0.22;;;;;;;19.98;67.55;97716.19;5032890;28;20036;-80
2021/06/02 05:15:48;;;;;;;0.35;0.20;;;;;;;20.69;61.37;97727.28;5032825;28;20045;-81
2021/06/02 05:18:32;;;;;;;0.10;0.10;;;;;;;22.54;54.58;97727.84;5047855;28;20029;-81
2021/06/02 05:24:19;;;;;;;;;;;;;;;25.30;44.36;97738.19;5033091;28;20041;-82
2021/06/02 05:27:18;;;;;;;7.10;4.57;;;;;;;26.21;41.08;97743.56;5033456;28;19917;-83
2021/06/02 05:30:04;;;;;;;0.30;0.30;;;;;;;26.93;38.83;97733.63;5015816;28;20372;-82
2021/06/02 05:33:18;;;;;;;0.10;0.10;;;;;;;28.21;36.45;97745.47;5035624;28;20484;-83
2021/06/02 05:36:21;;;;;;;0.10;0.10;;;;;;;29.12;34.35;97748.94;5475187;22;20247;-79
2021/06/02 05:39:19;;;;;;;0.00;0.00;;;;;;;29.56;34.28;97749.31;5045797;28;20063;-77
2021/06/02 05:42:18;;;;;;;0.00;0.00;;;;;;;30.38;32.53;97754.44;5052449;28;20031;-77
2021/06/02 05:45:05;;;;;;;0.00;0.00;;;;;;;29.99;32.76;97758.09;5035558;28;20139;-77
2021/06/02 05:47:43;;;;;;;0.17;0.17;;;;;;;30.32;32.68;97753.38;5045848;28;20033;-77
2021/06/02 05:50:27;;;;;;;0.05;0.05;;;;;;;29.70;32.87;97756.53;5034977;28;20515;-77
2021/06/02 05:53:20;;;;;;;0.50;0.35;;;;;;;30.01;32.07;97751.28;5035086;28;20507;-77
2021/06/02 05:56:07;;;;;;;9.07;5.30;;;;;;;30.56;32.56;97749.97;5035000;28;20037;-77
2021/06/02 05:58:41;;;;;;;0.38;0.38;;;;;;;32.00;31.53;97758.63;5052943;28;20601;-77
2021/06/02 06:01:35;;;;;;;0.03;0.03;;;;;;;32.64;28.85;97733.38;5034692;28;20384;-77
2021/06/02 06:04:22;;;;;;;1.65;0.70;;;;;;;31.74;29.39;97743.09;5052440;28;20025;-77
2021/06/02 06:06:59;;;;;;;0.00;0.00;;;;;;;30.43;31.59;97754.66;5035020;28;20029;-77
2021/06/02 06:09:43;;;;;;;2.45;0.40;;;;;;;31.13;29.46;97740.03;5034701;28;20032;-78
2021/06/02 06:12:33;;;;;;;0.32;0.13;;;;;;;29.94;30.52;97750.44;5052150;28;20060;-76
2021/06/02 06:15:33;;;;;;;0.43;0.43;;;;;;;29.72;31.52;97751.66;5014823;28;20087;-77
2021/06/02 06:18:36;;;;;;;1.00;0.60;;;;;;;29.85;32.31;97759.97;5030673;28;20016;-77
2021/06/02 06:21:02;;;;;;;0.10;0.10;;;;;;;29.87;30.58;97748.75;5052536;28;20032;-77
2021/06/02 06:23:39;;;;;;;2.08;1.45;;;;;;;28.94;32.74;97753.13;5034461;28;20031;-77
2021/06/02 06:26:31;;;;;;;0.22;0.22;;;;;;;29.81;31.82;97752.31;5034415;28;20557;-77
2021/06/02 06:29:14;;;;;;;0.20;0.20;;;;;;;30.24;30.87;97755.53;5052352;28;20096;-77
2021/06/02 06:31:45;;;;;;;0.57;0.20;;;;;;;30.91;30.32;97757.94;5034174;28;20041;-78
2021/06/02 06:34:15;;;;;;;0.00;0.00;;;;;;;30.09;31.39;97758.50;5034349;28;20079;-76
2021/06/02 06:36:41;;;;;;;0.32;0.32;;;;;;;28.17;34.31;97752.44;5037499;28;20041;-76
2021/06/02 06:39:18;;;;;;;0.20;0.20;;;;;;;26.96;35.37;97757.09;5050838;28;20035;-76
2021/06/02 06:41:46;;;;;;;0.80;0.43;;;;;;;25.44;38.74;97749.41;5040866;28;20074;-76
2021/06/02 06:44:12;;;;;;;0.57;0.45;;;;;;;24.30;40.20;97742.81;5017477;28;20035;-75
2021/06/02 06:46:38;;;;;;;0.10;0.10;;;;;;;23.44;43.06;97734.38;5034219;28;20021;-75
2021/06/02 06:49:04;;;;;;;0.05;0.05;;;;;;;22.29;44.38;97725.16;5049888;28;20437;-76
2021/06/02 06:51:31;;;;;;;0.05;0.05;;;;;;;21.97;46.01;97734.03;5034180;28;20021;-76
2021/06/02 06:53:57;;;;;;;0.63;0.40;;;;;;;21.56;50.83;97713.81;5040542;28;20099;-75
2021/06/02 06:56:23;;;;;;;0.70;0.55;;;;;;;21.06;51.13;97718.97;5037035;28;20020;-76
2021/06/02 06:58:49;;;;;;;0.20;0.00;;;;;;;20.75;51.41;97717.66;5053813;28;20437;-76
2021/06/02 07:01:15;;;;;;;0.13;0.13;;;;;;;22.37;48.21;97733.38;5053802;28;20021;-76
2021/06/02 07:03:42;;;;;;;0.40;0.22;;;;;;;23.84;43.05;97742.50;5053807;28;20024;-76
2021/06/02 07:06:11;;;;;;;0.10;0.10;;;;;;;24.39;42.91;97736.28;5036967;28;20395;-76
2021/06/02 07:08:36;;;;;;;3.75;0.60;;;;;;;25.18;44.19;97747.00;5050220;28;20167;-75
2021/06/02 07:11:02;;;;;;;0.52;0.38;;;;;;;24.91;42.85;97744.78;5033827;28;20104;-76
2021/06/02 07:13:30;;;;;;;0.52;0.43;;;;;;;25.08;41.60;97732.69;5026616;28;20098;-75
2021/06/02 07:15:55;;;;;;;0.22;0.22;;;;;;;24.51;42.55;97734.88;5039010;28;20175;-76
2021/06/02 07:18:21;;;;;;;0.10;0.10;;;;;;;27.33;38.23;97732.16;5033198;28;20107;-75
2021/06/02 07:20:48;;;;;;;0.00;0.00;;;;;;;26.63;37.11;97717.34;5033502;28;20087;-76
2021/06/02 07:23:14;;;;;;;0.08;0.08;;;;;;;27.39;36.23;97703.03;5041705;28;20024;-76
2021/06/02 07:25:40;;;;;;;3.33;1.40;;;;;;;27.12;36.11;97737.63;5036606;28;20124;-77
2021/06/02 07:28:09;;;;;;;12.88;2.22;;;;;;;27.22;36.03;97715.34;5036677;28;20024;-77
2021/06/02 07:30:35;;;;;;;4.60;1.80;;;;;;;27.41;35.06;97721.03;5053487;28;20031;-77
2021/06/02 07:33:00;;;;;;;7.97;3.58;;;;;;;27.04;36.56;97726.75;5036622;28;20398;-77
2021/06/02 07:35:26;;;;;;;13.38;2.63;;;;;;;29.47;33.31;97745.88;5018636;28;20036;-77
2021/06/02 07:37:52;;;;;;;3.15;1.70;;;;;;;29.61;32.00;97723.84;5016443;28;20492;-77
2021/06/02 07:40:18;;;;;;;5.00;1.65;;;;;;;30.47;32.43;97739.38;5033012;28;20074;-77
2021/06/02 07:42:43;;;;;;;2.60;1.60;;;;;;;32.57;27.69;97700.19;5033347;28;20023;-77
2021/06/02 07:45:09;;;;;;;6.25;1.73;;;;;;;32.00;27.48;97726.25;5016737;28;20033;-79
2021/06/02 07:47:35;;;;;;;6.85;2.42;;;;;;;31.19;30.15;97727.25;5016456;28;20033;-76
2021/06/02 07:50:01;;;;;;;7.63;2.58;;;;;;;30.55;32.29;97728.06;5033202;28;20021;-77
2021/06/02 07:52:27;;;;;;;6.07;2.30;;;;;;;28.81;32.03;97699.88;5032664;28;20061;-76
2021/06/02 07:54:53;;;;;;;7.22;2.40;;;;;;;26.67;36.98;97732.41;5016608;28;20035;-75
2021/06/02 07:57:18;;;;;;;6.97;2.10;;;;;;;25.36;37.80;97747.56;5016607;28;20105;-75
2021/06/02 07:59:44;;;;;;;4.10;2.55;;;;;;;23.77;42.09;97737.94;5033082;28;20078;-76
2021/06/02 08:02:09;;;;;;;11.80;3.88;;;;;;;22.84;45.70;97718.22;5033093;28;20025;-76
2021/06/02 08:04:35;;;;;;;487.67;94.25;;;;;;;21.96;49.52;97711.41;5016426;28;20033;-75
2021/06/02 08:07:01;;;;;;;124.25;26.17;;;;;;;21.14;52.85;97723.66;5050730;28;20579;-76
2021/06/02 08:09:28;;;;;;;22.60;5.25;;;;;;;20.39;56.00;97730.34;5016336;28;20024;-76
2021/06/02 08:11:53;;;;;;;14.90;3.55;;;;;;;19.66;58.68;97688.56;5016384;28;20108;-76
2021/06/02 08:14:19;;;;;;;10.55;2.28;;;;;;;19.36;58.27;97724.03;5033120;28;20106;-76
2021/06/02 08:16:45;;;;;;;7.68;2.28;;;;;;;19.29;56.76;97734.59;5016131;28;20053;-77
2021/06/02 08:19:11;;;;;;;2.92;1.73;;;;;;;19.25;57.37;97724.22;5016352;28;20380;-76
2021/06/02 08:21:38;;;;;;;10.18;2.80;;;;;;;19.34;59.67;97704.34;5016468;28;20170;-76
2021/06/02 08:24:04;;;;;;;8.63;2.50;;;;;;;19.80;61.19;97723.41;5016324;28;20122;-77
2021/06/02 08:26:35;;;;;;;6.97;2.20;;;;;;;19.92;59.11;97726.78;5016187;28;20032;-76
2021/06/02 08:29:00;;;;;;;4.35;2.13;;;;;;;19.78;58.79;97690.09;5035909;28;20033;-76
2021/06/02 08:31:26;;;;;;;3.95;2.45;;;;;;;20.02;57.87;97705.88;5019919;28;20029;-77
2021/06/02 08:33:51;;;;;;;5.55;2.08;;;;;;;20.01;53.71;97732.19;5036856;28;20021;-76
2021/06/02 08:36:17;;;;;;;4.53;2.00;;;;;;;19.91;53.93;97700.63;5020243;28;20072;-78
2021/06/02 08:38:42;;;;;;;4.45;3.17;;;;;;;20.62;52.25;97720.72;5019778;28;20107;-76
2021/06/02 08:41:08;;;;;;;3.33;1.95;;;;;;;21.37;51.50;97706.72;5054831;28;20115;-77
2021/06/02 08:43:34;;;;;;;9.32;2.25;;;;;;;22.36;49.93;97723.50;5020095;28;20020;-77
2021/06/02 08:46:00;;;;;;;4.28;1.70;;;;;;;22.35;46.78;97722.66;5054539;28;20020;-77
2021/06/02 08:48:26;;;;;;;8.57;2.08;;;;;;;22.94;44.97;97707.16;5019819;28;20523;-77
2021/06/02 08:50:51;;;;;;;7.13;2.03;;;;;;;23.66;44.56;97742.72;5036518;28;20028;-77
2021/06/02 08:53:18;;;;;;;2.80;2.00;;;;;;;23.12;45.25;97730.56;5054189;28;20082;-77
2021/06/02 08:55:45;;;;;;;8.63;3.08;;;;;;;22.92;43.98;97720.97;5036311;28;20028;-77
2021/06/02 08:58:17;;;;;;;4.32;2.47;;;;;;;22.71;46.53;97723.31;5036656;28;20021;-77
2021/06/02 09:00:43;;;;;;;2.10;1.83;;;;;;;22.74;45.22;97713.94;5019975;28;20143;-77
2021/06/02 09:03:08;;;;;;;3.85;2.75;;;;;;;22.24;49.70;97701.13;5036424;28;20518;-77
2021/06/02 09:05:34;;;;;;;5.15;2.17;;;;;;;22.43;48.24;97716.34;5036349;28;20396;-77
2021/06/02 09:08:01;;;;;;;3.83;2.58;;;;;;;22.39;48.16;97720.44;5036339;28;20025;-76
2021/06/02 09:10:27;;;;;;;6.05;2.53;;;;;;;24.59;44.53;97727.47;5020038;28;20029;-77
2021/06/02 09:12:58;;;;;;;8.43;1.88;;;;;;;27.41;37.48;97721.03;5019455;28;20031;-79
2021/06/02 09:15:24;;;;;;;3.42;2.30;;;;;;;28.52;35.57;97710.09;5019851;28;20040;-78
2021/06/02 09:17:50;;;;;;;6.82;2.13;;;;;;;29.90;32.70;97735.34;5019360;28;20510;-78
2021/06/02 09:20:35;;;;;;;2.92;1.90;;;;;;;30.75;31.13;97711.44;5035875;28;20021;-78
2021/06/02 09:23:02;;;;;;;5.03;1.88;;;;;;;29.67;31.54;97736.78;5035848;28;20111;-75
2021/06/02 09:25:27;;;;;;;4.60;3.47;;;;;;;27.51;36.70;97736.38;5035894;28;20029;-77
2021/06/02 09:27:57;;;;;;;3.00;2.40;;;;;;;26.23;37.80;97744.25;5035679;28;20060;-77
2021/06/02 09:30:29;;;;;;;6.85;2.30;;;;;;;25.36;40.46;97722.91;5019496;28;20091;-77
2021/06/02 09:32:56;;;;;;;8.77;2.00;;;;;;;24.21;42.09;97736.50;5035918;28;20459;-77
2021/06/02 09:35:36;;;;;;;7.57;2.38;;;;;;;23.29;43.97;97714.22;5019276;28;20067;-77
2021/06/02 09:38:02;;;;;;;14.45;3.47;;;;;;;22.23;47.06;97731.28;5019352;28;20118;-77
2021/06/02 09:40:39;;;;;;;11.00;3.45;;;;;;;21.53;50.98;97708.69;5035530;28;20499;-78
2021/06/02 09:43:06;;;;;;;7.47;3.20;;;;;;;21.74;52.50;97719.22;5019523;28;20057;-78
2021/06/02 09:45:32;;;;;;;3.65;2.83;;;;;;;23.53;47.79;97709.59;5019250;28;20120;-77
2021/06/02 09:48:00;;;;;;;12.48;2.33;;;;;;;26.67;38.61;97721.44;5019283;28;20028;-78
2021/06/02 09:50:26;;;;;;;11.40;2.38;;;;;;;28.92;34.53;97729.56;5019046;28;20040;-78
2021/06/02 09:52:53;;;;;;;2.38;1.75;;;;;;;27.98;34.33;97711.84;5034904;28;20093;-75
2021/06/02 09:55:22;;;;;;;15.75;8.48;;;;;;;30.11;32.43;97726.03;5035287;28;20021;-78
2021/06/02 09:58:12;;;;;;;3.85;2.20;;;;;;;31.08;30.79;97703.88;5035648;28;20056;-76
2021/06/02 10:00:45;;;;;;;8.25;5.28;;;;;;;31.61;31.42;97716.38;5023651;28;20484;-77
2021/06/02 10:03:16;;;;;;;6.75;3.50;;;;;;;32.27;28.40;97710.28;5035311;28;20040;-77
2021/06/02 10:05:41;;;;;;;2.45;2.20;;;;;;;33.38;28.42;97710.06;5018485;28;20036;-77
2021/06/02 10:08:11;;;;;;;10.10;2.50;;;;;;;33.22;27.73;97695.75;5035291;28;20475;-77
2021/06/02 10:10:36;;;;;;;4.30;1.85;;;;;;;32.73;25.96;97677.38;5035073;28;20486;-78
2021/06/02 10:13:05;;;;;;;3.72;2.20;;;;;;;33.79;28.46;97710.94;5018217;28;20082;-76
2021/06/02 10:15:53;;;;;;;2.33;1.95;;;;;;;33.09;26.36;97697.88;5018255;28;20115;-76
2021/06/02 10:18:32;;;;;;;5.80;2.17;;;;;;;32.79;27.14;97678.41;5036191;28;20104;-76
2021/06/02 10:21:08;;;;;;;3.42;2.00;;;;;;;34.22;25.97;97684.81;5034674;28;20111;-76
2021/06/02 10:23:38;;;;;;;6.90;1.85;;;;;;;32.82;26.89;97694.56;5034972;28;20078;-76
2021/06/02 10:26:04;;;;;;;3.67;2.38;;;;;;;29.16;30.36;97697.88;5018297;28;20032;-76
2021/06/02 10:28:30;;;;;;;4.53;2.38;;;;;;;28.44;34.00;97713.03;5034517;28;20025;-76
2021/06/02 10:30:57;;;;;;;2.85;1.83;;;;;;;27.11;32.35;97691.13;5034164;28;20450;-76
2021/06/02 10:33:22;;;;;;;8.57;1.85;;;;;;;25.73;35.90;97692.81;5034512;28;20373;-77
2021/06/02 10:35:48;;;;;;;2.90;1.80;;;;;;;24.43;37.24;97683.75;5034590;28;20108;-76
2021/06/02 10:38:15;;;;;;;5.20;1.95;;;;;;;24.49;37.92;97676.72;5034474;28;20025;-76
2021/06/02 10:40:41;;;;;;;6.45;2.33;;;;;;;24.57;41.62;97695.84;5017930;28;20040;-77
2021/06/02 10:43:11;;;;;;;4.22;2.15;;;;;;;24.65;41.33;97701.25;5034178;28;20495;-76
2021/06/02 10:45:47;;;;;;;6.05;3.38;;;;;;;25.19;41.62;97705.75;5017897;28;20036;-77
2021/06/02 10:48:13;;;;;;;8.52;3.28;;;;;;;25.41;39.01;97679.38;5017869;28;20033;-77
2021/06/02 10:50:43;;;;;;;13.38;3.60;;;;;;;24.31;40.46;97678.84;5017341;28;20380;-77
2021/06/02 10:53:35;;;;;;;11.55;3.10;;;;;;;24.22;42.89;97692.56;5033774;28;20091;-77
2021/06/02 10:56:02;;;;;;;6.13;2.70;;;;;;;23.78;42.72;97691.28;5030658;28;20132;-76
2021/06/02 10:58:31;;;;;;;7.72;2.50;;;;;;;22.74;43.63;97652.06;5034216;28;20049;-75
2021/06/02 11:01:18;;;;;;;9.30;2.65;;;;;;;22.60;49.04;97690.88;5051720;28;20039;-78
2021/06/02 11:04:06;;;;;;;5.25;2.90;;;;;;;22.11;48.33;97690.69;5017554;28;20028;-78
2021/06/02 11:07:17;;;;;;;5.88;3.10;;;;;;;21.68;49.19;97693.47;5033768;28;20040;-76
2021/06/02 11:09:58;;;;;;;6.65;3.15;;;;;;;21.27;50.87;97702.34;5007077;28;20072;-76
2021/06/02 11:12:49;;;;;;;11.85;6.10;;;;;;;21.03;52.58;97697.53;5033501;28;20192;-76
2021/06/02 11:15:30;;;;;;;16.23;3.90;;;;;;;20.79;54.67;97690.00;5033936;28;20029;-76
2021/06/02 11:18:11;;;;;;;4.70;2.75;;;;;;;20.63;54.15;97695.28;5033588;28;20075;-77
2021/06/02 11:21:01;;;;;;;6.97;2.70;;;;;;;20.47;53.00;97706.81;5033634;28;20392;-76
2021/06/02 11:23:35;;;;;;;9.13;3.30;;;;;;;20.40;58.29;97691.25;5018187;28;20390;-76
2021/06/02 11:26:28;;;;;;;4.15;2.50;;;;;;;20.58;57.12;97708.44;5016960;28;20040;-76
2021/06/02 11:28:55;;;;;;;3.45;2.80;;;;;;;20.62;55.44;97689.97;5030853;28;20506;-76
2021/06/02 11:31:29;;;;;;;7.18;2.67;;;;;;;21.02;57.87;97706.69;5016862;28;20029;-77
2021/06/02 11:34:29;;;;;;;4.03;2.47;;;;;;;21.23;53.69;97706.38;5016663;28;20051;-76
2021/06/02 11:37:13;;;;;;;7.38;2.67;;;;;;;21.08;54.35;97684.31;5026029;28;20041;-76
2021/06/02 11:39:40;;;;;;;4.18;3.40;;;;;;;21.46;53.76;97711.19;5036770;28;20480;-76
2021/06/02 11:42:07;;;;;;;6.28;3.35;;;;;;;21.32;53.49;97706.31;5043173;28;20407;-77
2021/06/02 11:44:34;;;;;;;6.22;2.60;;;;;;;21.00;54.21;97698.69;5016777;28;20036;-76
2021/06/02 11:47:00;;;;;;;5.70;2.90;;;;;;;20.97;55.25;97682.69;5033113;28;20457;-76
2021/06/02 11:49:27;;;;;;;6.22;3.40;;;;;;;21.12;55.78;97699.34;5051090;28;20033;-76
2021/06/02 11:51:55;;;;;;;7.78;2.90;;;;;;;21.04;56.69;97701.97;5024455;28;20119;-77
2021/06/02 11:54:21;;;;;;;8.27;2.97;;;;;;;20.96;54.85;97697.28;5053141;28;20020;-77
2021/06/02 11:56:47;;;;;;;11.35;3.60;;;;;;;21.01;54.37;97685.97;5053003;28;20115;-76
2021/06/02 11:59:13;;;;;;;9.20;3.70;;;;;;;21.29;54.05;97694.88;5070886;28;20119;-76
2021/06/02 12:01:38;;;;;;;10.25;3.33;;;;;;;21.59;53.53;97689.00;5053082;28;20024;-77
2021/06/02 12:04:04;;;;;;;12.00;2.50;;;;;;;22.43;50.42;97709.03;5047190;28;20499;-76
2021/06/02 12:06:31;;;;;;;4.53;2.03;;;;;;;21.90;48.70;97698.38;5036876;28;20021;-76
2021/06/02 12:08:57;;;;;;;4.18;2.38;;;;;;;22.45;48.71;97704.28;5037011;28;20069;-77
2021/06/02 12:11:22;;;;;;;2.75;2.05;;;;;;;23.29;46.26;97686.91;5020280;28;20032;-77